Boonsboro, MD

5:47 AM EDT on June 03, 2015 (GMT -0400)
Boonsboro Weather (South) | | Change Station
CLOSE
Current Station
Personal Weather Station
Location: Boonsboro, MD
Elevation: 492 ft
Nearby Weather Stations

Elev 492 ft 39.48 °N, 77.67 °W | Updated 2 seconds ago

Overcast
Overcast
57.0 °F
Feels Like 57.0 °F
N
2.4
Wind Variable Wind from NE
Gusts 3.5 mph

Today
High -- | Low -- °F
--% Chance of Precip.
Yesterday
High -- | Low -- °F
Precip. -- in
5:44 AM 8:33 PM
Full, 99% visible
Pressure 30.14 in
Visibility 10.0 miles
Clouds Mostly Cloudy 1900 ft
Overcast 2800 ft
Dew Point 56 °F
Humidity 98%
Rainfall 0.00 in
Snow Depth Not available.
UV 0 out of 12
Pollen .40 out of 12
Air Quality Not available.
Flu Activity Sporadic
METAR KMRB 030853Z AUTO 03004KT 10SM BKN019 OVC028 14/12 A3015 RMK AO2 SLP207 T01440122 58003 TSNO

More Conditions Fewer Conditions

Pressure 30.14 in
Visibility 10.0 miles
Clouds Mostly Cloudy 1900 ft
Overcast 2800 ft
Dew Point 56 °F
Humidity 98%
Rainfall 0.00 in
Snow Depth Not available.
UV 0 out of 12
Pollen .40 out of 12
Air Quality Not available.
Flu Activity Sporadic
METAR KMRB 030853Z AUTO 03004KT 10SM BKN019 OVC028 14/12 A3015 RMK AO2 SLP207 T01440122 58003 TSNO

More Conditions Fewer Conditions

10-Day Weather Forecast

×

Almanac

Astronomy

Jun. 03, 2015 Rise Set
Actual Time
Civil Twilight
Nautical Twilight
Astronomical Twilight
Moon
Length of Visible Light
Length of Day
Tomorrow will be .
, % of the Moon is Illuminated

Today's Extremes

State Highs State Lows

Community

WunderPhotos

Upload Photos

1,826,197 photos uploaded!

WunderBlogs® & News

Nearby

Air Quality

  Air Quality AQ Index Pollutant
Not available.

Snow Depth

Station Depth Elevation

Earthquake Activity

City Distance Mag. Time & Date
Minimum magnitude displayed is 2.5.

Coastal Water Temperatures

Place Temperature

Stations

Nearby Weather Stations

Station Location Temp. Windchill Dew Point Humidity Wind Precip. Elev Updated Type